createdAt,value
2019-03-21T00:01:10.129Z,91.90
2019-03-21T00:02:19.825Z,92.28
2019-03-21T00:03:08.845Z,91.90
2019-03-21T00:04:05.490Z,92.47
2019-03-21T00:05:06.676Z,92.38
2019-03-21T00:06:09.314Z,91.71
2019-03-21T00:07:08.411Z,92.19
2019-03-21T00:08:06.118Z,92.19
2019-03-21T00:09:14.367Z,92.57
2019-03-21T00:10:07.401Z,92.47
2019-03-21T00:11:08.315Z,91.81
2019-03-21T00:12:08.325Z,92.66
2019-03-21T00:13:06.778Z,92.47
2019-03-21T00:14:14.817Z,92.47
2019-03-21T00:15:22.821Z,92.76
2019-03-21T00:16:08.319Z,92.47
2019-03-21T00:17:11.337Z,92.00
2019-03-21T00:18:09.314Z,92.00
2019-03-21T00:19:23.956Z,92.19
2019-03-21T00:20:07.978Z,91.43
2019-03-21T00:21:11.818Z,91.24
2019-03-21T00:22:08.773Z,92.00
2019-03-21T00:23:10.404Z,92.00
2019-03-21T00:24:10.324Z,91.81
2019-03-21T00:25:10.834Z,92.47
2019-03-21T00:26:13.794Z,92.94
2019-03-21T00:27:10.873Z,92.85
2019-03-21T00:28:13.313Z,92.47
2019-03-21T00:29:11.429Z,92.47
2019-03-21T00:30:14.808Z,92.76
2019-03-21T00:31:12.828Z,92.57
2019-03-21T00:32:10.164Z,92.47
2019-03-21T00:33:10.372Z,91.62
2019-03-21T00:34:18.314Z,91.81
2019-03-21T00:35:13.320Z,92.19
2019-03-21T00:36:10.928Z,92.09
2019-03-21T00:37:12.161Z,91.90
2019-03-21T00:38:11.331Z,90.77
2019-03-21T00:39:15.769Z,91.52
2019-03-21T00:40:13.376Z,91.33
2019-03-21T00:41:13.771Z,91.43
2019-03-21T00:42:14.825Z,91.19
2019-03-21T00:43:18.862Z,91.57
2019-03-21T00:44:18.395Z,91.29
2019-03-21T00:45:16.319Z,91.19
2019-03-21T00:46:13.779Z,91.19
2019-03-21T00:47:13.776Z,91.48
2019-03-21T00:48:15.809Z,91.76
2019-03-21T00:49:14.857Z,92.05
2019-03-21T00:50:42.351Z,92.05
2019-03-21T00:51:15.320Z,91.86
2019-03-21T00:52:13.870Z,92.52
2019-03-21T00:53:18.827Z,91.95
2019-03-21T00:54:15.824Z,91.48
2019-03-21T00:55:22.359Z,91.38
2019-03-21T00:56:16.314Z,91.38
2019-03-21T00:57:14.674Z,91.38
2019-03-21T00:58:18.323Z,91.67
2019-03-21T00:59:14.907Z,91.38
2019-03-21T01:00:15.142Z,91.29
2019-03-21T01:01:16.829Z,91.10
2019-03-21T01:02:15.432Z,90.44
2019-03-21T01:03:15.666Z,90.15
2019-03-21T01:04:16.872Z,90.25
2019-03-21T01:05:16.090Z,90.06
2019-03-21T01:06:16.328Z,90.25
2019-03-21T01:07:18.273Z,91.00
2019-03-21T01:08:24.313Z,90.81
2019-03-21T01:09:24.335Z,91.57
2019-03-21T01:10:16.907Z,91.19
2019-03-21T01:11:17.110Z,91.67
2019-03-21T01:12:17.341Z,91.19
2019-03-21T01:13:19.488Z,91.38
2019-03-21T01:14:34.273Z,91.19
2019-03-21T01:15:17.759Z,91.10
2019-03-21T01:16:20.869Z,90.81
2019-03-21T01:17:18.387Z,90.06
2019-03-21T01:18:19.331Z,89.96
2019-03-21T01:19:19.973Z,90.53
2019-03-21T01:20:20.319Z,90.72
2019-03-21T01:21:18.784Z,90.91
2019-03-21T01:22:22.816Z,90.72
2019-03-21T01:23:22.348Z,90.34
2019-03-21T01:24:19.353Z,90.25
2019-03-21T01:25:21.484Z,90.63
2019-03-21T01:26:21.423Z,90.34
2019-03-21T01:27:23.544Z,90.72
2019-03-21T01:28:20.954Z,91.19
2019-03-21T01:29:27.824Z,91.10
2019-03-21T01:30:35.986Z,91.38
2019-03-21T01:31:56.948Z,91.19
2019-03-21T01:32:20.597Z,91.29
2019-03-21T01:33:32.408Z,91.29
2019-03-21T01:34:21.745Z,91.10
2019-03-21T01:35:24.991Z,91.19
2019-03-21T01:36:42.110Z,91.19
2019-03-21T01:37:23.075Z,91.19
2019-03-21T01:38:22.743Z,90.34
2019-03-21T01:39:23.587Z,90.72
2019-03-21T01:40:26.719Z,90.44
2019-03-21T01:41:29.832Z,90.53
2019-03-21T01:42:24.321Z,90.63
2019-03-21T01:43:24.779Z,91.48
2019-03-21T01:44:24.364Z,91.29
2019-03-21T01:45:22.588Z,90.91
2019-03-21T01:46:24.274Z,91.57
2019-03-21T01:47:22.861Z,90.81
2019-03-21T01:48:24.847Z,91.48
2019-03-21T01:49:24.276Z,91.57
2019-03-21T01:50:25.374Z,91.67
2019-03-21T01:51:23.769Z,91.00
2019-03-21T01:52:25.825Z,90.81
2019-03-21T01:53:24.054Z,90.72
2019-03-21T01:54:46.252Z,90.44
2019-03-21T01:55:25.298Z,90.81
2019-03-21T01:56:24.636Z,91.00
2019-03-21T01:57:24.893Z,90.67
2019-03-21T01:58:48.783Z,90.67
2019-03-21T01:59:28.813Z,90.81
2019-03-21T02:00:27.316Z,91.00
2019-03-21T02:01:27.323Z,91.00
2019-03-21T02:02:29.886Z,91.48
2019-03-21T02:03:25.856Z,91.00
2019-03-21T02:04:42.699Z,91.34
2019-03-21T02:05:26.240Z,91.05
2019-03-21T02:06:28.355Z,90.48
2019-03-21T02:07:27.283Z,90.96
2019-03-21T02:08:28.186Z,90.77
2019-03-21T02:09:29.423Z,90.58
2019-03-21T02:10:28.870Z,89.92
2019-03-21T02:11:35.829Z,89.92
2019-03-21T02:12:29.322Z,89.54
2019-03-21T02:13:29.384Z,89.16
2019-03-21T02:14:29.270Z,89.25
2019-03-21T02:15:29.821Z,89.73
2019-03-21T02:16:28.014Z,90.15
2019-03-21T02:17:34.823Z,89.73
2019-03-21T02:18:36.285Z,90.01
2019-03-21T02:19:30.616Z,89.82
2019-03-21T02:20:28.698Z,90.30
2019-03-21T02:21:30.767Z,89.82
2019-03-21T02:22:32.825Z,89.73
2019-03-21T02:23:32.266Z,90.39
2019-03-21T02:24:29.369Z,90.48
2019-03-21T02:25:30.273Z,89.73
2019-03-21T02:26:30.773Z,89.82
2019-03-21T02:27:33.817Z,89.73
2019-03-21T02:28:30.033Z,89.35
2019-03-21T02:29:37.818Z,89.63
2019-03-21T02:30:30.395Z,89.63
2019-03-21T02:31:32.312Z,90.01
2019-03-21T02:32:32.360Z,90.01
2019-03-21T02:33:33.824Z,90.20
2019-03-21T02:34:38.855Z,90.48
2019-03-21T02:35:33.316Z,90.77
2019-03-21T02:36:33.313Z,90.39
2019-03-21T02:37:33.367Z,89.54
2019-03-21T02:38:38.806Z,89.63
2019-03-21T02:39:31.972Z,90.30
2019-03-21T02:40:33.864Z,90.48
2019-03-21T02:41:53.374Z,90.58
2019-03-21T02:42:32.562Z,91.05
2019-03-21T02:43:47.335Z,91.62
2019-03-21T02:44:33.946Z,91.62
2019-03-21T02:45:34.827Z,91.81
2019-03-21T02:46:56.198Z,92.10
2019-03-21T02:47:33.398Z,92.29
2019-03-21T02:48:36.279Z,91.81
2019-03-21T02:49:33.742Z,92.19
2019-03-21T02:50:33.954Z,92.00
2019-03-21T02:51:37.830Z,91.91
2019-03-21T02:52:35.312Z,91.91
2019-03-21T02:53:40.265Z,91.53
2019-03-21T02:54:43.784Z,91.72
2019-03-21T02:55:45.517Z,91.72
2019-03-21T02:56:42.844Z,91.15
2019-03-21T02:57:35.196Z,91.15
2019-03-21T02:58:36.816Z,90.67
2019-03-21T02:59:35.519Z,89.92
2019-03-21T03:00:37.340Z,90.67
2019-03-21T03:01:39.823Z,90.20
2019-03-21T03:02:37.826Z,90.01
2019-03-21T03:03:37.144Z,89.63
2019-03-21T03:04:41.786Z,89.63
2019-03-21T03:06:01.324Z,89.63
2019-03-21T03:06:37.760Z,89.35
2019-03-21T03:07:38.333Z,89.44
2019-03-21T03:08:38.879Z,90.01
2019-03-21T03:09:37.195Z,90.11
2019-03-21T03:10:39.314Z,90.39
2019-03-21T03:11:39.322Z,90.11
2019-03-21T03:12:37.788Z,90.39
2019-03-21T03:15:22.516Z,90.11
2019-03-21T03:16:14.532Z,90.11
2019-03-21T03:17:11.994Z,90.58
2019-03-21T03:18:11.362Z,90.77
2019-03-21T03:19:13.457Z,90.96
2019-03-21T03:20:14.511Z,91.24
2019-03-21T03:21:18.959Z,90.86
2019-03-21T03:22:17.513Z,90.86
2019-03-21T03:23:12.458Z,91.53
2019-03-21T03:24:14.483Z,91.34
2019-03-21T03:25:34.453Z,90.67
2019-03-21T03:26:13.495Z,91.34
2019-03-21T03:27:11.830Z,91.53
2019-03-21T03:28:13.990Z,91.24
2019-03-21T03:29:28.958Z,91.15
2019-03-21T03:30:16.056Z,91.15
2019-03-21T03:31:13.993Z,91.43
2019-03-21T03:32:16.540Z,91.15
2019-03-21T03:33:12.937Z,90.53
2019-03-21T03:34:14.133Z,90.11
2019-03-21T03:35:14.244Z,90.06
2019-03-21T03:36:15.018Z,90.34
2019-03-21T03:37:14.506Z,90.25
2019-03-21T03:38:15.474Z,90.72
2019-03-21T03:39:18.945Z,90.53
2019-03-21T03:40:22.973Z,90.16
2019-03-21T03:41:14.800Z,90.25
2019-03-21T03:42:15.984Z,90.63
2019-03-21T03:43:15.121Z,90.91
2019-03-21T03:44:15.452Z,90.25
2019-03-21T03:45:14.667Z,90.63
2019-03-21T03:46:16.483Z,89.97
2019-03-21T03:47:14.949Z,90.34
2019-03-21T03:48:22.047Z,90.06
2019-03-21T03:49:38.000Z,90.53
2019-03-21T03:50:17.448Z,90.53
2019-03-21T03:51:15.758Z,90.34
2019-03-21T03:52:15.886Z,91.10
2019-03-21T03:53:16.121Z,90.91
2019-03-21T03:54:19.994Z,91.48
2019-03-21T03:55:18.001Z,91.39
2019-03-21T03:56:18.583Z,91.58
2019-03-21T03:57:16.781Z,91.10
2019-03-21T03:58:20.530Z,91.58
2019-03-21T03:59:18.972Z,91.29
2019-03-21T04:00:19.983Z,91.29
2019-03-21T04:01:18.953Z,91.67
2019-03-21T04:02:19.504Z,91.39
2019-03-21T04:03:22.049Z,91.67
2019-03-21T04:04:19.492Z,90.63
2019-03-21T04:05:21.996Z,90.82
2019-03-21T04:06:18.211Z,91.29
2019-03-21T04:07:18.309Z,90.72
2019-03-21T04:08:23.491Z,90.63
2019-03-21T04:09:20.503Z,90.34
2019-03-21T04:10:18.841Z,90.16
2019-03-21T04:11:22.485Z,90.25
2019-03-21T04:12:20.446Z,89.78
2019-03-21T04:13:19.290Z,90.25
2019-03-21T04:14:25.697Z,90.44
2019-03-21T04:15:21.175Z,90.53
2019-03-21T04:16:42.888Z,91.01
2019-03-21T04:17:21.445Z,91.10
2019-03-21T04:18:21.484Z,90.91
2019-03-21T04:19:24.031Z,90.91
2019-03-21T04:20:22.538Z,90.91
2019-03-21T04:21:23.461Z,90.91
2019-03-21T04:22:20.847Z,90.63
2019-03-21T04:23:23.005Z,90.91
2019-03-21T04:24:23.230Z,90.63
2019-03-21T04:25:23.038Z,90.72
2019-03-21T04:26:38.945Z,90.91
2019-03-21T04:27:26.533Z,90.82
2019-03-21T04:28:25.502Z,91.67
2019-03-21T04:29:25.944Z,91.48
2019-03-21T04:30:43.283Z,90.91
2019-03-21T04:31:26.814Z,91.58
2019-03-21T04:32:24.263Z,91.29
2019-03-21T04:33:23.171Z,91.29
2019-03-21T04:34:22.894Z,91.29
2019-03-21T04:35:23.086Z,90.91
2019-03-21T04:36:38.992Z,91.01
2019-03-21T04:37:24.475Z,91.01
2019-03-21T04:38:25.513Z,90.91
2019-03-21T04:39:25.845Z,91.01
2019-03-21T04:40:25.940Z,90.72
2019-03-21T04:41:24.078Z,90.91
2019-03-21T04:42:27.988Z,91.10
2019-03-21T04:43:40.971Z,90.72
2019-03-21T04:44:28.521Z,91.20
2019-03-21T04:45:46.165Z,90.63
2019-03-21T04:46:35.624Z,89.97
2019-03-21T04:47:33.041Z,90.44
2019-03-21T04:48:28.464Z,90.44
2019-03-21T04:49:28.498Z,91.01
2019-03-21T04:50:26.596Z,90.53
2019-03-21T04:51:25.865Z,90.91
2019-03-21T04:52:27.460Z,91.20
2019-03-21T04:53:27.375Z,91.58
2019-03-21T04:54:26.298Z,91.39
2019-03-21T04:55:27.991Z,90.91
2019-03-21T04:56:30.495Z,91.58
2019-03-21T04:57:30.517Z,91.48
2019-03-21T04:58:28.488Z,91.20
2019-03-21T04:59:33.992Z,90.91
2019-03-21T05:00:29.012Z,90.82
2019-03-21T05:01:29.436Z,90.72
2019-03-21T05:02:50.495Z,91.29
2019-03-21T05:03:32.502Z,91.67
2019-03-21T05:04:28.913Z,91.58
2019-03-21T05:05:34.997Z,91.29
2019-03-21T05:06:32.757Z,91.10
2019-03-21T05:07:30.523Z,91.39
2019-03-21T05:08:29.943Z,91.77
2019-03-21T05:09:32.487Z,91.67
2019-03-21T05:10:37.012Z,91.67
2019-03-21T05:11:29.152Z,91.39
2019-03-21T05:12:29.353Z,91.20
2019-03-21T05:13:35.942Z,91.10
2019-03-21T05:14:33.494Z,91.10
2019-03-21T05:15:33.489Z,91.39
2019-03-21T05:16:46.000Z,91.58
2019-03-21T05:17:31.443Z,90.82
2019-03-21T05:18:31.954Z,91.48
2019-03-21T05:19:34.489Z,91.58
2019-03-21T05:20:35.456Z,91.77
2019-03-21T05:21:57.792Z,91.58
2019-03-21T05:22:32.496Z,91.39
2019-03-21T05:23:31.227Z,91.58
2019-03-21T05:24:32.992Z,91.48
2019-03-21T05:25:38.004Z,91.48
2019-03-21T05:26:34.664Z,91.48
2019-03-21T05:27:56.508Z,91.58
2019-03-21T05:28:54.501Z,91.20
2019-03-21T05:29:56.435Z,91.77
2019-03-21T05:30:33.952Z,92.14
2019-03-21T05:31:37.952Z,92.61
2019-03-21T05:32:55.521Z,92.24
2019-03-21T05:33:42.442Z,92.61
2019-03-21T05:34:57.494Z,92.90
2019-03-21T05:35:37.441Z,92.43
2019-03-21T05:36:45.945Z,92.33
2019-03-21T05:37:34.271Z,92.61
2019-03-21T05:40:08.594Z,92.61
2019-03-21T05:42:44.869Z,92.52
2019-03-21T05:43:42.005Z,92.33
2019-03-21T05:44:39.081Z,92.71
2019-03-21T05:45:38.688Z,92.80
2019-03-21T05:46:37.884Z,92.24
2019-03-21T05:47:40.096Z,92.05
2019-03-21T05:48:38.348Z,92.43
2019-03-21T05:49:40.250Z,92.61
2019-03-21T05:50:40.542Z,92.61
2019-03-21T05:51:41.491Z,92.33
2019-03-21T05:53:03.558Z,92.52
2019-03-21T05:53:46.047Z,92.80
2019-03-21T05:54:41.748Z,93.37
2019-03-21T05:55:39.676Z,92.80
2019-03-21T05:58:14.341Z,93.28
2019-03-21T05:59:15.206Z,93.56
2019-03-21T06:00:17.417Z,93.61
2019-03-21T06:01:27.811Z,93.42
2019-03-21T06:02:14.751Z,93.80
2019-03-21T06:03:35.770Z,94.18
2019-03-21T06:04:28.304Z,94.27
2019-03-21T06:05:14.285Z,94.37
2019-03-21T06:06:14.198Z,94.27
2019-03-21T06:07:21.749Z,94.27
2019-03-21T06:08:43.760Z,94.18
2019-03-21T06:09:14.700Z,93.99
2019-03-21T06:10:37.211Z,94.37
2019-03-21T06:11:28.271Z,94.18
2019-03-21T06:12:17.304Z,95.21
2019-03-21T06:13:15.697Z,95.31
2019-03-21T06:14:40.697Z,94.93
2019-03-21T06:15:36.695Z,95.12
2019-03-21T06:16:15.809Z,95.12
2019-03-21T06:17:20.366Z,95.78
2019-03-21T06:18:19.327Z,95.31
2019-03-21T06:19:21.535Z,95.40
2019-03-21T06:20:16.750Z,95.97
2019-03-21T06:21:16.753Z,96.40
2019-03-21T06:22:15.106Z,96.40
2019-03-21T06:23:16.840Z,96.02
2019-03-21T06:24:15.405Z,96.12
2019-03-21T06:25:17.245Z,96.40
2019-03-21T06:26:20.770Z,96.31
2019-03-21T06:27:17.739Z,96.50
2019-03-21T06:28:18.377Z,96.69
2019-03-21T06:29:32.947Z,96.78
2019-03-21T06:30:19.287Z,96.78
2019-03-21T06:31:32.278Z,96.88
2019-03-21T06:32:17.870Z,97.25
2019-03-21T06:33:20.209Z,97.92
2019-03-21T06:34:17.299Z,98.82
2019-03-21T06:35:17.559Z,99.99
2019-03-21T06:36:17.738Z,99.99
2019-03-21T06:37:17.959Z,99.99
2019-03-21T06:38:19.746Z,99.99
2019-03-21T06:39:20.272Z,99.99
2019-03-21T06:40:18.498Z,99.97
2019-03-21T06:41:20.246Z,99.97
2019-03-21T06:42:22.746Z,99.30
2019-03-21T06:43:22.743Z,98.50
2019-03-21T06:44:24.748Z,97.55
2019-03-21T06:45:21.255Z,97.12
2019-03-21T06:46:19.466Z,95.89
2019-03-21T06:47:19.681Z,93.99
2019-03-21T06:48:21.749Z,93.46
2019-03-21T06:49:20.089Z,91.08
2019-03-21T06:50:21.750Z,90.47
2019-03-21T06:51:20.337Z,88.75
2019-03-21T06:52:20.544Z,88.09
2019-03-21T06:53:20.786Z,87.13
2019-03-21T06:54:20.860Z,87.65
2019-03-21T06:55:22.791Z,85.47
2019-03-21T06:56:21.240Z,83.09
2019-03-21T06:57:21.442Z,82.93
2019-03-21T06:58:23.246Z,82.08
2019-03-21T06:59:21.826Z,80.02
2019-03-21T07:00:22.056Z,76.98
2019-03-21T07:01:23.784Z,77.70
2019-03-21T07:02:26.259Z,77.56
2019-03-21T07:03:22.603Z,78.04
2019-03-21T07:04:24.746Z,79.43
2019-03-21T07:05:22.960Z,80.38
2019-03-21T07:06:24.755Z,81.05
2019-03-21T07:07:29.265Z,81.52
2019-03-21T07:08:24.547Z,81.85
2019-03-21T07:09:23.644Z,80.27
2019-03-21T07:10:23.842Z,78.27
2019-03-21T07:11:24.054Z,76.98
2019-03-21T07:12:24.273Z,76.82
2019-03-21T07:13:24.490Z,75.05
2019-03-21T07:14:24.691Z,72.03
2019-03-21T07:15:24.916Z,68.88
2019-03-21T07:16:25.120Z,67.90
2019-03-21T07:17:25.348Z,69.27
2019-03-21T07:18:27.257Z,67.87
2019-03-21T07:19:26.726Z,67.07
2019-03-21T07:20:27.920Z,67.87
2019-03-21T07:21:25.998Z,66.63
2019-03-21T07:22:27.788Z,65.67
2019-03-21T07:23:26.335Z,65.71
2019-03-21T07:24:29.230Z,65.23
2019-03-21T07:25:30.246Z,63.51
2019-03-21T07:26:42.746Z,63.23
2019-03-21T07:27:33.779Z,63.51
2019-03-21T07:28:27.119Z,62.65
2019-03-21T07:29:29.287Z,63.03
2019-03-21T07:30:29.245Z,63.64
2019-03-21T07:31:28.737Z,62.21
2019-03-21T07:32:33.650Z,61.95
2019-03-21T07:33:32.446Z,60.33
2019-03-21T07:34:36.844Z,59.56
2019-03-21T07:35:30.308Z,59.15
2019-03-21T07:36:30.298Z,60.10
2019-03-21T07:37:31.217Z,61.76
2019-03-21T07:38:28.820Z,60.77
2019-03-21T07:39:30.757Z,60.01
2019-03-21T07:40:30.309Z,60.61
2019-03-21T07:41:52.263Z,60.55
2019-03-21T07:42:36.250Z,58.22
2019-03-21T07:43:33.750Z,58.34
2019-03-21T07:44:30.009Z,57.77
2019-03-21T07:45:36.949Z,58.34
2019-03-21T07:46:32.255Z,56.91
2019-03-21T07:47:38.907Z,57.39
2019-03-21T07:48:34.257Z,58.22
2019-03-21T07:49:32.684Z,59.47
2019-03-21T07:50:32.762Z,59.78
2019-03-21T07:51:34.776Z,59.52
2019-03-21T07:52:35.254Z,57.77
2019-03-21T07:53:35.270Z,57.20
2019-03-21T07:54:33.250Z,57.80
2019-03-21T07:55:34.712Z,57.32
2019-03-21T07:56:32.200Z,56.59
2019-03-21T07:57:36.249Z,55.53
2019-03-21T07:58:32.604Z,55.12
2019-03-21T07:59:36.205Z,55.41
2019-03-21T08:00:34.747Z,56.87
2019-03-21T08:01:33.284Z,55.44
2019-03-21T08:02:33.522Z,55.53
2019-03-21T08:03:35.433Z,55.75
2019-03-21T08:04:36.054Z,54.86
2019-03-21T08:05:40.331Z,55.73
2019-03-21T08:06:36.250Z,55.44
2019-03-21T08:07:43.705Z,56.13
2019-03-21T08:08:36.346Z,55.36
2019-03-21T08:09:38.785Z,54.60
2019-03-21T08:10:36.781Z,54.85
2019-03-21T08:11:38.787Z,54.21
2019-03-21T08:12:36.621Z,52.57
2019-03-21T08:13:36.208Z,51.73
2019-03-21T08:14:41.226Z,51.16
2019-03-21T08:15:39.757Z,50.17
2019-03-21T08:16:37.235Z,50.43
2019-03-21T08:17:36.118Z,51.68
2019-03-21T08:18:36.355Z,52.36
2019-03-21T08:19:39.708Z,53.22
2019-03-21T08:20:41.732Z,52.48
2019-03-21T08:21:38.763Z,53.17
2019-03-21T08:22:39.271Z,51.16
2019-03-21T08:23:38.707Z,50.20
2019-03-21T08:26:13.358Z,49.31
2019-03-21T08:27:10.824Z,47.46
2019-03-21T08:28:11.131Z,47.32
2019-03-21T08:29:13.457Z,49.69
2019-03-21T08:30:09.793Z,51.42
2019-03-21T08:31:33.002Z,51.06
2019-03-21T08:32:10.310Z,51.28
2019-03-21T08:33:13.429Z,49.77
2019-03-21T08:34:12.260Z,49.10
2019-03-21T08:35:26.498Z,47.17
2019-03-21T08:36:13.444Z,47.72
2019-03-21T08:37:13.996Z,48.61
2019-03-21T08:38:13.954Z,48.02
2019-03-21T08:39:13.425Z,48.47
2019-03-21T08:40:19.460Z,49.41
2019-03-21T08:41:18.466Z,47.94
2019-03-21T08:42:12.060Z,48.07
2019-03-21T08:43:13.937Z,47.03
2019-03-21T08:44:12.425Z,46.84
2019-03-21T08:45:13.087Z,46.84
2019-03-21T08:46:14.464Z,47.24
2019-03-21T08:47:15.465Z,47.17
2019-03-21T08:48:13.112Z,46.42
2019-03-21T08:49:15.914Z,45.68
2019-03-21T08:50:14.971Z,44.02
2019-03-21T08:51:15.466Z,43.82
2019-03-21T08:52:14.423Z,44.31
2019-03-21T08:53:15.293Z,44.79
2019-03-21T08:54:14.288Z,45.36
2019-03-21T08:55:16.470Z,44.69
2019-03-21T08:56:17.054Z,45.25
2019-03-21T08:57:16.608Z,45.75
2019-03-21T08:58:23.109Z,45.39
2019-03-21T08:59:37.913Z,44.09
2019-03-21T09:00:15.520Z,44.02
2019-03-21T09:01:19.948Z,43.82
2019-03-21T09:02:19.962Z,43.65
2019-03-21T09:03:17.988Z,42.32
2019-03-21T09:04:16.178Z,41.30
2019-03-21T09:05:32.027Z,40.32
2019-03-21T09:06:18.464Z,40.72
2019-03-21T09:07:17.701Z,41.30
2019-03-21T09:08:20.462Z,40.12
2019-03-21T09:09:19.932Z,41.28
2019-03-21T09:10:34.514Z,41.09
2019-03-21T09:11:33.541Z,41.78
2019-03-21T09:12:19.518Z,40.63
2019-03-21T09:13:44.496Z,39.16
2019-03-21T09:14:25.779Z,38.68
2019-03-21T09:15:19.965Z,40.44
2019-03-21T09:16:25.949Z,40.45
2019-03-21T09:17:34.460Z,39.59
2019-03-21T09:18:22.465Z,39.37
2019-03-21T09:19:43.972Z,39.06
2019-03-21T09:25:06.995Z,40.37
2019-03-21T09:26:02.564Z,40.55
2019-03-21T09:26:59.117Z,42.05
2019-03-21T09:28:02.927Z,44.72
2019-03-21T09:28:58.661Z,44.07
2019-03-21T09:30:04.840Z,43.99
2019-03-21T09:31:08.481Z,43.29
2019-03-21T09:33:30.174Z,40.61
2019-03-21T09:34:30.158Z,37.89
2019-03-21T09:35:29.301Z,39.18
2019-03-21T09:36:28.427Z,38.93
2019-03-21T09:37:34.533Z,37.75
2019-03-21T09:38:30.688Z,39.82
2019-03-21T09:39:32.675Z,36.92
2019-03-21T09:40:39.968Z,37.79
2019-03-21T09:41:33.202Z,37.87
2019-03-21T09:42:33.159Z,38.02
2019-03-21T09:43:31.231Z,39.39
2019-03-21T09:44:35.704Z,38.23
2019-03-21T09:45:53.707Z,39.12
2019-03-21T09:46:32.003Z,37.88
2019-03-21T09:48:07.241Z,37.04
2019-03-21T09:48:32.227Z,36.57
2019-03-21T09:49:32.325Z,36.58
2019-03-21T09:50:31.851Z,35.52
2019-03-21T09:51:32.679Z,34.77
2019-03-21T09:52:53.747Z,33.31
2019-03-21T09:53:32.383Z,32.34
2019-03-21T09:54:36.122Z,32.04
2019-03-21T09:55:39.688Z,33.02
2019-03-21T09:56:34.626Z,34.11
2019-03-21T09:57:35.720Z,32.79
2019-03-21T09:58:35.222Z,32.97
2019-03-21T09:59:33.507Z,33.76
2019-03-21T10:00:33.805Z,36.38
2019-03-21T10:01:34.870Z,36.30
2019-03-21T10:02:37.635Z,36.22
2019-03-21T10:03:56.651Z,34.78
2019-03-21T10:06:15.133Z,33.14
2019-03-21T10:07:07.148Z,33.40
2019-03-21T10:08:05.657Z,34.39
2019-03-21T10:09:13.654Z,34.64
2019-03-21T10:10:08.154Z,36.61
2019-03-21T10:11:10.210Z,34.91
2019-03-21T10:12:13.302Z,33.45
2019-03-21T10:13:43.385Z,32.68
2019-03-21T10:14:08.716Z,33.52
2019-03-21T10:15:11.451Z,32.20
2019-03-21T10:16:07.203Z,31.25
2019-03-21T10:17:07.284Z,30.41
2019-03-21T10:18:15.126Z,30.15
2019-03-21T10:19:09.639Z,30.08
2019-03-21T10:20:09.346Z,28.80
2019-03-21T10:21:10.618Z,27.35
2019-03-21T10:22:09.388Z,27.66
2019-03-21T10:23:09.461Z,27.19
2019-03-21T10:24:11.100Z,25.23
2019-03-21T10:25:10.810Z,26.60
2019-03-21T10:26:10.670Z,26.61
2019-03-21T10:27:15.250Z,26.53
2019-03-21T10:28:11.177Z,25.76
2019-03-21T10:29:10.830Z,26.72
2019-03-21T10:30:11.671Z,24.56
2019-03-21T10:31:12.585Z,26.27
2019-03-21T10:32:14.446Z,26.92
2019-03-21T10:33:11.658Z,27.72
2019-03-21T10:34:15.882Z,27.45
2019-03-21T10:35:16.097Z,27.35
2019-03-21T10:36:12.671Z,26.68
2019-03-21T10:37:16.150Z,26.90
2019-03-21T10:38:16.010Z,26.53
2019-03-21T10:39:17.718Z,25.16
2019-03-21T10:40:13.633Z,25.19
2019-03-21T10:41:12.100Z,25.79
2019-03-21T10:42:18.165Z,27.40
2019-03-21T10:43:21.630Z,29.19
2019-03-21T10:44:37.632Z,27.93
2019-03-21T10:45:12.996Z,27.91
2019-03-21T10:46:15.454Z,27.04
2019-03-21T10:47:19.151Z,29.21
2019-03-21T10:48:14.098Z,28.14
2019-03-21T10:49:35.746Z,27.07
2019-03-21T10:50:35.995Z,27.15
2019-03-21T10:51:15.702Z,28.53
2019-03-21T10:52:20.172Z,27.14
2019-03-21T10:53:16.481Z,26.76
2019-03-21T10:54:14.711Z,27.37
2019-03-21T10:55:16.641Z,27.46
2019-03-21T10:56:16.688Z,28.75
2019-03-21T10:59:15.681Z,28.98
2019-03-21T11:00:02.989Z,28.69
2019-03-21T11:01:03.459Z,30.34
2019-03-21T11:01:49.524Z,29.16
2019-03-21T11:03:03.454Z,29.17
2019-03-21T11:05:26.186Z,28.50
2019-03-21T11:06:27.301Z,28.77
2019-03-21T11:07:21.390Z,30.04
2019-03-21T11:08:20.521Z,29.06
2019-03-21T11:09:24.377Z,29.57
2019-03-21T11:10:28.766Z,29.47
2019-03-21T11:11:27.845Z,30.15
2019-03-21T11:12:28.670Z,29.46
2019-03-21T11:13:29.215Z,30.41
2019-03-21T11:14:24.316Z,29.05
2019-03-21T11:15:23.940Z,29.13
2019-03-21T11:16:23.193Z,29.32
2019-03-21T11:17:24.221Z,30.47
2019-03-21T11:18:35.519Z,29.81
2019-03-21T11:19:22.669Z,30.54
2019-03-21T11:20:23.895Z,29.37
2019-03-21T11:21:53.237Z,28.91
2019-03-21T11:22:24.320Z,30.73
2019-03-21T11:23:35.380Z,30.28
2019-03-21T11:24:27.728Z,30.38
2019-03-21T11:25:25.954Z,30.47
2019-03-21T11:26:25.721Z,30.51
2019-03-21T11:27:28.209Z,30.31
2019-03-21T11:28:28.205Z,29.15
2019-03-21T11:29:47.996Z,27.42
2019-03-21T11:30:25.664Z,30.08
2019-03-21T11:31:37.656Z,33.04
2019-03-21T11:32:27.216Z,29.85
2019-03-21T11:33:43.190Z,28.38
2019-03-21T11:34:27.660Z,28.29
2019-03-21T11:35:32.714Z,28.18
2019-03-21T11:36:38.101Z,30.44
2019-03-21T11:37:42.830Z,30.24
2019-03-21T11:38:38.847Z,29.27
2019-03-21T11:39:28.677Z,28.09
2019-03-21T11:40:28.311Z,28.89
2019-03-21T11:41:29.665Z,26.59
2019-03-21T11:42:30.716Z,26.60
2019-03-21T11:43:30.212Z,24.28
2019-03-21T11:44:39.251Z,24.67
2019-03-21T11:45:31.218Z,24.68
2019-03-21T11:46:27.808Z,25.56
2019-03-21T11:47:43.824Z,26.15
2019-03-21T11:48:41.714Z,25.58
2019-03-21T11:49:31.436Z,24.48
2019-03-21T11:50:32.688Z,26.20
2019-03-21T11:51:36.765Z,26.32
2019-03-21T11:52:30.119Z,26.54
2019-03-21T11:53:34.199Z,25.86
2019-03-21T11:54:33.166Z,25.53
2019-03-21T11:55:32.213Z,27.19
2019-03-21T11:56:30.262Z,28.17
2019-03-21T11:57:45.731Z,28.07
2019-03-21T11:58:53.715Z,27.10
2019-03-21T11:59:50.664Z,25.54
2019-03-21T12:00:43.705Z,25.56
2019-03-21T12:01:32.707Z,26.04
2019-03-21T12:02:33.658Z,26.46
2019-03-21T12:03:32.705Z,26.58
2019-03-21T12:04:47.233Z,25.69
2019-03-21T12:05:34.199Z,26.18
2019-03-21T12:06:32.800Z,25.38
2019-03-21T12:07:33.709Z,25.67
2019-03-21T12:08:38.741Z,26.25
2019-03-21T12:09:32.237Z,26.46
2019-03-21T12:10:34.174Z,25.69
2019-03-21T12:11:34.899Z,25.51
2019-03-21T12:12:48.735Z,24.73
2019-03-21T12:13:39.714Z,25.96
2019-03-21T12:14:35.255Z,27.68
2019-03-21T12:15:36.216Z,27.78
2019-03-21T12:16:41.161Z,26.81
2019-03-21T12:17:36.715Z,25.63
2019-03-21T12:18:47.700Z,26.71
2019-03-21T12:19:38.663Z,26.53
2019-03-21T12:20:36.396Z,26.54
2019-03-21T12:21:34.616Z,25.25
2019-03-21T12:22:50.710Z,25.65
2019-03-21T12:23:35.662Z,26.60
2019-03-21T12:24:42.697Z,27.19
2019-03-21T12:25:36.421Z,27.89
2019-03-21T12:26:36.546Z,27.57
2019-03-21T12:27:38.218Z,29.30
2019-03-21T12:28:59.730Z,29.71
2019-03-21T12:29:51.706Z,26.96
2019-03-21T12:30:39.730Z,28.68
2019-03-21T12:31:38.488Z,30.49
2019-03-21T12:32:48.489Z,30.21
2019-03-21T12:34:01.688Z,29.24
2019-03-21T12:34:40.676Z,30.10
2019-03-21T12:35:39.716Z,29.15
2019-03-21T12:37:05.676Z,30.38
2019-03-21T12:37:43.380Z,30.32
2019-03-21T12:38:42.683Z,30.44
2019-03-21T12:39:46.726Z,29.47
2019-03-21T12:40:40.708Z,30.07
2019-03-21T12:41:41.703Z,29.90
2019-03-21T12:42:45.669Z,28.94
2019-03-21T12:45:16.071Z,26.49
2019-03-21T12:46:44.845Z,27.68
2019-03-21T12:47:17.068Z,27.42
2019-03-21T12:48:16.716Z,27.40
2019-03-21T12:49:20.194Z,28.34
2019-03-21T12:50:29.534Z,27.21
2019-03-21T12:51:36.117Z,26.33
2019-03-21T12:52:40.780Z,27.12
2019-03-21T12:53:14.833Z,26.84
2019-03-21T12:54:36.686Z,25.97
2019-03-21T12:55:15.667Z,25.07
2019-03-21T12:56:16.959Z,27.06
2019-03-21T12:57:17.105Z,27.93
2019-03-21T12:58:21.050Z,28.76
2019-03-21T12:59:21.546Z,30.49
2019-03-21T13:00:16.971Z,31.26
2019-03-21T13:02:53.554Z,31.54
2019-03-21T13:03:51.619Z,30.38
2019-03-21T13:04:50.591Z,30.58
2019-03-21T13:05:48.778Z,31.20
2019-03-21T13:07:19.508Z,32.26
2019-03-21T13:07:49.292Z,31.60
2019-03-21T13:09:10.339Z,31.73
2019-03-21T13:09:53.798Z,31.28
2019-03-21T13:11:10.038Z,30.51
2019-03-21T13:11:53.842Z,29.76
2019-03-21T13:13:19.469Z,30.31
2019-03-21T13:14:14.282Z,29.15
2019-03-21T13:14:48.794Z,30.51
2019-03-21T13:15:54.643Z,30.44
2019-03-21T13:16:50.381Z,30.73